Bettsville, Ohio
Current Conditions -  °F | °C
As of 3:53 AM on Saturday 25 Oct 2014 (Local Time) from KTDZ Reporting Station
Haze Haze  
Wind Chill: 45°   Ceiling: Unl
Heat Index: 48°   Visibility: 5mi
Dew Point: 44°   Wind: 6mph
Humidity: 86%   Direction: 220°SW
Pressure: 29.94"   Gusts: NA
Location:  41.25°N, 83.24°W
Report Text: KTDZ 250753Z AUTO 22005KT 5SM BR CLR 09/07 A2994 RMK AO2 SLP137 T00890067 TSNO
Loading
Personal Weather Stations






























Interactive Weather Map
Tropical Storm Tracking
New forecast layout! Learn more

10-Day Weather Forecast

Advertisements
Track Severe Weather on mobile